createdAt,value
2023-04-20T00:01:32.969Z,61.14
2023-04-20T00:04:01.022Z,59.82
2023-04-20T00:06:32.380Z,58.57
2023-04-20T00:09:00.852Z,59.88
2023-04-20T00:11:28.492Z,58.79
2023-04-20T00:13:56.055Z,57.16
2023-04-20T00:16:23.444Z,59.10
2023-04-20T00:18:51.615Z,59.24
2023-04-20T00:21:23.940Z,58.31
2023-04-20T00:23:51.867Z,58.77
2023-04-20T00:26:19.264Z,57.86
2023-04-20T00:28:46.940Z,58.27
2023-04-20T00:31:14.619Z,57.62
2023-04-20T00:33:42.062Z,56.18
2023-04-20T00:36:09.572Z,56.83
2023-04-20T00:38:37.209Z,56.75
2023-04-20T00:41:04.604Z,57.28
2023-04-20T00:43:32.021Z,57.81
2023-04-20T00:45:59.698Z,58.99
2023-04-20T00:48:27.594Z,59.38
2023-04-20T00:50:54.964Z,58.27
2023-04-20T00:53:22.592Z,58.12
2023-04-20T00:55:50.809Z,56.77
2023-04-20T00:58:18.244Z,56.90
2023-04-20T01:00:45.881Z,57.38
2023-04-20T01:03:13.747Z,56.79
2023-04-20T01:05:41.271Z,57.47
2023-04-20T01:08:08.886Z,57.27
2023-04-20T01:10:36.274Z,57.59
2023-04-20T01:13:07.080Z,58.14
2023-04-20T01:15:35.404Z,56.97
2023-04-20T01:18:03.614Z,58.20
2023-04-20T01:20:31.546Z,57.40
2023-04-20T01:23:00.491Z,58.36
2023-04-20T01:25:27.967Z,58.62
2023-04-20T01:27:55.338Z,60.28
2023-04-20T01:30:22.996Z,60.52
2023-04-20T01:32:50.504Z,61.05
2023-04-20T01:35:17.855Z,59.45
2023-04-20T01:37:45.831Z,60.96
2023-04-20T01:40:13.572Z,60.96
2023-04-20T01:42:40.950Z,60.11
2023-04-20T01:45:08.841Z,59.26
2023-04-20T01:47:36.713Z,59.40
2023-04-20T01:50:04.207Z,59.63
2023-04-20T01:52:31.946Z,59.50
2023-04-20T01:54:59.359Z,59.46
2023-04-20T01:57:26.732Z,59.00
2023-04-20T01:59:54.592Z,58.97
2023-04-20T02:02:22.016Z,59.89
2023-04-20T02:04:49.656Z,59.05
2023-04-20T02:07:17.103Z,60.41
2023-04-20T02:09:44.535Z,59.09
2023-04-20T02:12:12.193Z,59.65
2023-04-20T02:14:40.146Z,59.73
2023-04-20T02:17:10.717Z,60.44
2023-04-20T02:19:38.309Z,60.47
2023-04-20T02:22:05.770Z,60.54
2023-04-20T02:24:33.400Z,60.74
2023-04-20T02:27:01.460Z,60.98
2023-04-20T02:29:28.842Z,60.25
2023-04-20T02:31:56.778Z,60.19
2023-04-20T02:34:24.455Z,60.10
2023-04-20T02:36:51.839Z,61.12
2023-04-20T02:39:19.844Z,60.14
2023-04-20T02:41:47.426Z,61.16
2023-04-20T02:44:14.813Z,61.61
2023-04-20T02:46:42.472Z,61.04
2023-04-20T02:49:10.033Z,60.98
2023-04-20T02:51:37.994Z,60.90
2023-04-20T02:54:05.853Z,61.64
2023-04-20T02:56:33.244Z,60.11
2023-04-20T02:59:01.277Z,60.20
2023-04-20T03:01:29.150Z,59.70
2023-04-20T03:03:58.601Z,59.25
2023-04-20T03:06:26.656Z,59.48
2023-04-20T03:08:54.504Z,59.47
2023-04-20T03:11:23.447Z,60.84
2023-04-20T03:13:50.996Z,59.35
2023-04-20T03:16:19.174Z,59.14
2023-04-20T03:18:46.722Z,59.03
2023-04-20T03:21:14.937Z,58.49
2023-04-20T03:23:43.521Z,59.86
2023-04-20T03:26:11.289Z,60.16
2023-04-20T03:28:39.664Z,60.21
2023-04-20T03:31:07.675Z,59.79
2023-04-20T03:33:35.084Z,59.25
2023-04-20T03:36:04.472Z,59.49
2023-04-20T03:38:32.116Z,59.62
2023-04-20T03:40:59.489Z,59.28
2023-04-20T03:43:28.086Z,59.90
2023-04-20T03:45:55.773Z,59.07
2023-04-20T03:48:25.236Z,60.24
2023-04-20T03:50:52.799Z,59.94
2023-04-20T03:53:20.469Z,60.49
2023-04-20T03:55:47.880Z,60.53
2023-04-20T03:58:15.820Z,61.77
2023-04-20T04:00:43.977Z,61.31
2023-04-20T04:03:12.166Z,60.42
2023-04-20T04:05:40.755Z,61.29
2023-04-20T04:08:08.209Z,61.30
2023-04-20T04:10:36.217Z,60.41
2023-04-20T04:13:04.106Z,60.95
2023-04-20T04:15:32.046Z,60.16
2023-04-20T04:18:00.102Z,60.58
2023-04-20T04:20:27.729Z,60.92
2023-04-20T04:22:55.368Z,59.85
2023-04-20T04:25:23.922Z,58.84
2023-04-20T04:27:51.350Z,58.89
2023-04-20T04:30:20.002Z,59.91
2023-04-20T04:32:49.067Z,59.65
2023-04-20T04:35:16.821Z,59.66
2023-04-20T04:37:44.205Z,58.73
2023-04-20T04:40:12.013Z,58.47
2023-04-20T04:42:39.630Z,60.27
2023-04-20T04:45:07.645Z,61.19
2023-04-20T04:47:36.089Z,62.85
2023-04-20T04:50:04.501Z,61.99
2023-04-20T04:52:35.370Z,60.88
2023-04-20T04:55:03.865Z,61.21
2023-04-20T04:57:31.258Z,59.63
2023-04-20T04:59:58.655Z,58.33
2023-04-20T05:02:26.599Z,56.87
2023-04-20T05:04:54.106Z,57.99
2023-04-20T05:07:21.561Z,58.82
2023-04-20T05:09:49.169Z,57.90
2023-04-20T05:12:16.579Z,58.64
2023-04-20T05:14:43.961Z,57.10
2023-04-20T05:17:11.590Z,57.44
2023-04-20T05:19:38.941Z,56.67
2023-04-20T05:22:06.293Z,56.23
2023-04-20T05:24:33.901Z,55.51
2023-04-20T05:27:01.769Z,56.54
2023-04-20T05:29:29.163Z,56.49
2023-04-20T05:31:56.873Z,56.38
2023-04-20T05:34:24.258Z,55.39
2023-04-20T05:36:52.132Z,53.39
2023-04-20T05:39:19.986Z,53.47
2023-04-20T05:41:47.802Z,54.09
2023-04-20T05:44:15.165Z,53.57
2023-04-20T05:46:42.787Z,53.04
2023-04-20T05:49:10.408Z,53.18
2023-04-20T05:51:37.758Z,53.24
2023-04-20T05:54:05.618Z,52.64
2023-04-20T05:56:32.967Z,51.45
2023-04-20T05:59:00.490Z,50.38
2023-04-20T06:01:28.095Z,50.35
2023-04-20T06:03:56.301Z,48.67
2023-04-20T06:06:23.790Z,50.55
2023-04-20T06:08:52.206Z,50.35
2023-04-20T06:11:19.841Z,49.76
2023-04-20T06:13:47.222Z,48.54
2023-04-20T06:16:14.620Z,48.23
2023-04-20T06:18:42.276Z,47.44
2023-04-20T06:21:10.522Z,46.51
2023-04-20T06:23:38.335Z,46.37
2023-04-20T06:26:08.843Z,47.19
2023-04-20T06:28:36.960Z,46.53
2023-04-20T06:31:04.703Z,44.38
2023-04-20T06:33:32.487Z,46.53
2023-04-20T06:35:59.908Z,45.95
2023-04-20T06:38:27.329Z,46.70
2023-04-20T06:40:57.435Z,46.29
2023-04-20T06:43:24.793Z,45.51
2023-04-20T06:45:52.174Z,44.81
2023-04-20T06:48:31.688Z,45.76
2023-04-20T06:51:01.348Z,46.20
2023-04-20T06:53:28.970Z,44.72
2023-04-20T06:55:56.851Z,44.69
2023-04-20T06:58:24.297Z,43.86
2023-04-20T07:00:51.945Z,44.56
2023-04-20T07:03:19.693Z,44.16
2023-04-20T07:05:47.238Z,44.99
2023-04-20T07:08:18.036Z,42.58
2023-04-20T07:10:45.372Z,44.86
2023-04-20T07:13:12.732Z,44.29
2023-04-20T07:15:40.380Z,42.63
2023-04-20T07:18:07.887Z,43.11
2023-04-20T07:20:35.295Z,42.49
2023-04-20T07:23:02.957Z,42.87
2023-04-20T07:25:33.015Z,42.00
2023-04-20T07:28:03.192Z,42.04
2023-04-20T07:30:31.877Z,43.50
2023-04-20T07:32:59.734Z,43.28
2023-04-20T07:35:27.777Z,42.57
2023-04-20T07:37:55.641Z,42.37
2023-04-20T07:40:23.137Z,41.15
2023-04-20T07:42:50.816Z,42.01
2023-04-20T07:45:19.063Z,40.67
2023-04-20T07:47:47.655Z,39.70
2023-04-20T07:50:15.286Z,38.78
2023-04-20T07:52:44.450Z,38.39
2023-04-20T07:55:12.915Z,37.75
2023-04-20T07:57:40.334Z,37.80
2023-04-20T08:00:09.751Z,35.28
2023-04-20T08:02:40.357Z,33.24
2023-04-20T08:05:10.311Z,34.72
2023-04-20T08:07:38.323Z,33.93
2023-04-20T08:10:06.903Z,28.50
2023-04-20T08:12:34.522Z,25.12
2023-04-20T08:15:04.525Z,24.04
2023-04-20T08:17:35.228Z,24.90
2023-04-20T08:20:04.715Z,23.27
2023-04-20T08:22:33.558Z,23.16
2023-04-20T08:25:00.949Z,22.42
2023-04-20T08:27:30.537Z,22.80
2023-04-20T08:29:58.094Z,22.97
2023-04-20T08:32:26.767Z,21.11
2023-04-20T08:34:55.245Z,19.42
2023-04-20T08:37:23.239Z,18.52
2023-04-20T08:39:50.763Z,17.00
2023-04-20T08:42:18.490Z,15.38
2023-04-20T08:44:45.816Z,14.92
2023-04-20T08:47:13.203Z,14.12
2023-04-20T08:49:41.173Z,14.49
2023-04-20T08:52:10.908Z,13.88
2023-04-20T08:54:45.838Z,13.83
2023-04-20T08:57:17.276Z,14.42
2023-04-20T08:59:44.837Z,14.21
2023-04-20T09:02:12.707Z,14.23
2023-04-20T09:04:40.974Z,16.54
2023-04-20T09:07:17.478Z,14.96
2023-04-20T09:09:58.387Z,14.40
2023-04-20T09:12:25.928Z,16.19
2023-04-20T09:14:53.721Z,15.95
2023-04-20T09:17:31.986Z,16.06
2023-04-20T09:20:00.005Z,14.20
2023-04-20T09:22:31.760Z,15.26
2023-04-20T09:24:59.507Z,13.80
2023-04-20T09:27:27.354Z,13.40
2023-04-20T09:30:01.432Z,12.93
2023-04-20T09:32:29.462Z,13.29
2023-04-20T09:34:57.097Z,14.18
2023-04-20T09:37:25.584Z,16.77
2023-04-20T09:39:54.164Z,18.26
2023-04-20T09:42:21.609Z,20.53
2023-04-20T09:44:49.198Z,21.65
2023-04-20T09:47:17.921Z,23.39
2023-04-20T09:49:46.933Z,23.44
2023-04-20T09:52:21.106Z,25.15
2023-04-20T09:54:48.715Z,25.61
2023-04-20T09:57:16.358Z,25.88
2023-04-20T09:59:43.941Z,26.25
2023-04-20T10:02:12.541Z,23.30
2023-04-20T10:04:58.887Z,21.73
2023-04-20T10:07:27.211Z,19.99
2023-04-20T10:10:05.226Z,18.85
2023-04-20T10:12:32.853Z,18.03
2023-04-20T10:15:01.334Z,17.02
2023-04-20T10:17:32.241Z,18.58
2023-04-20T10:19:59.723Z,23.18
2023-04-20T10:22:32.848Z,20.09
2023-04-20T10:25:01.269Z,20.93
2023-04-20T10:27:32.095Z,22.02
2023-04-20T10:30:11.875Z,22.01
2023-04-20T10:32:41.905Z,24.93
2023-04-20T10:35:10.879Z,25.52
2023-04-20T10:37:47.992Z,27.58
2023-04-20T10:40:15.655Z,31.00
2023-04-20T10:42:43.986Z,31.23
2023-04-20T10:45:11.868Z,31.44
2023-04-20T10:47:40.948Z,29.44
2023-04-20T10:50:11.162Z,29.85
2023-04-20T10:52:39.907Z,30.83
2023-04-20T10:55:17.725Z,30.88
2023-04-20T10:57:45.575Z,29.61
2023-04-20T11:00:17.290Z,29.77
2023-04-20T11:02:54.906Z,30.31
2023-04-20T11:05:23.927Z,29.56
2023-04-20T11:07:58.446Z,30.70
2023-04-20T11:10:40.323Z,30.79
2023-04-20T11:13:08.180Z,29.38
2023-04-20T11:15:35.625Z,29.57
2023-04-20T11:18:09.568Z,29.09
2023-04-20T11:20:37.878Z,30.79
2023-04-20T11:23:05.977Z,32.16
2023-04-20T11:25:33.528Z,32.48
2023-04-20T11:28:08.920Z,31.64
2023-04-20T11:30:42.562Z,31.58
2023-04-20T11:33:10.904Z,30.14
2023-04-20T11:35:39.105Z,34.79
2023-04-20T11:38:06.490Z,35.27
2023-04-20T11:40:34.481Z,34.43
2023-04-20T11:43:02.171Z,33.56
2023-04-20T11:45:33.820Z,31.34
2023-04-20T11:48:03.455Z,31.24
2023-04-20T11:50:30.932Z,30.22
2023-04-20T11:52:58.432Z,29.78
2023-04-20T11:55:26.114Z,30.95
2023-04-20T11:57:53.518Z,30.85
2023-04-20T12:00:22.025Z,32.03
2023-04-20T12:02:49.856Z,33.77
2023-04-20T12:05:17.332Z,32.64
2023-04-20T12:07:44.697Z,33.71
2023-04-20T12:10:14.541Z,32.53
2023-04-20T12:12:42.699Z,32.04
2023-04-20T12:15:10.471Z,32.56
2023-04-20T12:17:38.166Z,32.60
2023-04-20T12:20:09.350Z,30.69
2023-04-20T12:22:36.696Z,30.18
2023-04-20T12:25:05.481Z,29.88
2023-04-20T12:27:32.879Z,30.62
2023-04-20T12:30:00.335Z,30.75
2023-04-20T12:32:28.262Z,32.70
2023-04-20T12:34:56.017Z,34.88
2023-04-20T12:37:23.453Z,33.99
2023-04-20T12:39:51.358Z,33.93
2023-04-20T12:42:19.007Z,33.73
2023-04-20T12:44:46.524Z,32.99
2023-04-20T12:47:14.283Z,32.02
2023-04-20T12:49:41.616Z,32.19
2023-04-20T12:52:09.082Z,31.18
2023-04-20T12:54:36.798Z,31.12
2023-04-20T12:57:04.418Z,31.61
2023-04-20T12:59:31.762Z,31.33
2023-04-20T13:01:59.531Z,32.74
2023-04-20T13:04:27.043Z,30.95
2023-04-20T13:06:54.486Z,32.94
2023-04-20T13:09:26.807Z,32.03
2023-04-20T13:11:54.746Z,31.39
2023-04-20T13:14:22.852Z,31.13
2023-04-20T13:16:51.350Z,32.54
2023-04-20T13:19:20.504Z,31.16
2023-04-20T13:21:48.129Z,31.15
2023-04-20T13:24:15.839Z,31.15
2023-04-20T13:26:43.471Z,30.52
2023-04-20T13:29:11.292Z,31.10
2023-04-20T13:31:38.849Z,30.35
2023-04-20T13:34:06.329Z,30.35
2023-04-20T13:36:33.955Z,30.24
2023-04-20T13:39:01.821Z,29.52
2023-04-20T13:41:29.220Z,30.81
2023-04-20T13:43:57.801Z,31.10
2023-04-20T13:46:25.329Z,32.59
2023-04-20T13:48:52.776Z,31.85
2023-04-20T13:51:20.437Z,33.08
2023-04-20T13:53:48.795Z,33.25
2023-04-20T13:56:16.716Z,34.34
2023-04-20T13:58:44.473Z,33.81
2023-04-20T14:01:12.595Z,33.79
2023-04-20T14:03:41.675Z,32.77
2023-04-20T14:06:09.161Z,32.29
2023-04-20T14:08:36.911Z,32.75
2023-04-20T14:11:04.616Z,31.84
2023-04-20T14:13:32.060Z,31.36
2023-04-20T14:15:59.459Z,30.28
2023-04-20T14:18:27.237Z,30.81
2023-04-20T14:20:54.644Z,29.90
2023-04-20T14:23:22.662Z,30.10
2023-04-20T14:25:50.921Z,29.39
2023-04-20T14:28:18.471Z,29.83
2023-04-20T14:30:45.999Z,29.58
2023-04-20T14:33:13.738Z,29.72
2023-04-20T14:35:41.158Z,29.84
2023-04-20T14:38:08.479Z,28.49
2023-04-20T14:40:36.140Z,28.42
2023-04-20T14:43:03.484Z,28.44
2023-04-20T14:45:30.900Z,29.14
2023-04-20T14:47:58.536Z,28.35
2023-04-20T14:50:28.783Z,28.75
2023-04-20T14:52:56.222Z,28.84
2023-04-20T14:55:25.729Z,30.99
2023-04-20T14:57:57.136Z,31.95
2023-04-20T15:00:25.317Z,31.17
2023-04-20T15:02:53.134Z,32.34
2023-04-20T15:05:20.985Z,31.06
2023-04-20T15:07:50.692Z,30.53
2023-04-20T15:10:20.834Z,30.00
2023-04-20T15:12:48.264Z,30.97
2023-04-20T15:15:16.224Z,31.18
2023-04-20T15:17:47.948Z,31.36
2023-04-20T15:20:15.681Z,30.61
2023-04-20T15:22:43.090Z,30.79
2023-04-20T15:25:10.430Z,30.96
2023-04-20T15:27:38.041Z,30.56
2023-04-20T15:30:06.160Z,32.29
2023-04-20T15:32:36.468Z,32.48
2023-04-20T15:35:04.237Z,32.81
2023-04-20T15:37:31.814Z,31.00
2023-04-20T15:39:59.263Z,30.51
2023-04-20T15:42:27.504Z,30.83
2023-04-20T15:44:54.867Z,30.64
2023-04-20T15:47:22.306Z,31.07
2023-04-20T15:49:50.009Z,31.98
2023-04-20T15:52:17.419Z,32.29
2023-04-20T15:54:46.830Z,31.53
2023-04-20T15:57:14.449Z,30.56
2023-04-20T15:59:41.779Z,30.55
2023-04-20T16:02:09.269Z,30.31
2023-04-20T16:04:37.121Z,30.54
2023-04-20T16:07:04.681Z,31.02
2023-04-20T16:09:32.036Z,30.43
2023-04-20T16:11:59.616Z,31.10
2023-04-20T16:14:26.984Z,30.62
2023-04-20T16:16:54.764Z,30.19
2023-04-20T16:19:22.381Z,29.82
2023-04-20T16:21:49.748Z,29.32
2023-04-20T16:24:17.387Z,29.29
2023-04-20T16:26:46.269Z,31.31
2023-04-20T16:29:13.627Z,30.09
2023-04-20T16:31:41.118Z,29.80
2023-04-20T16:34:08.769Z,29.14
2023-04-20T16:36:36.131Z,28.98
2023-04-20T16:39:05.896Z,31.80
2023-04-20T16:41:33.526Z,32.67
2023-04-20T16:44:00.930Z,35.81
2023-04-20T16:46:28.298Z,36.74
2023-04-20T16:48:55.961Z,36.04
2023-04-20T16:51:23.371Z,36.91
2023-04-20T16:53:50.774Z,36.81
2023-04-20T16:56:18.407Z,37.40
2023-04-20T16:58:45.866Z,37.77
2023-04-20T17:01:13.366Z,37.96
2023-04-20T17:03:41.534Z,37.51
2023-04-20T17:06:09.814Z,38.25
2023-04-20T17:08:40.476Z,37.72
2023-04-20T17:11:08.100Z,38.65
2023-04-20T17:13:35.473Z,37.47
2023-04-20T17:16:02.911Z,38.09
2023-04-20T17:18:30.791Z,38.55
2023-04-20T17:20:58.231Z,37.38
2023-04-20T17:23:26.553Z,38.10
2023-04-20T17:25:54.722Z,38.11
2023-04-20T17:28:22.086Z,38.83
2023-04-20T17:30:49.405Z,39.44
2023-04-20T17:33:17.037Z,39.27
2023-04-20T17:35:46.333Z,37.81
2023-04-20T17:38:13.996Z,38.56
2023-04-20T17:40:41.653Z,38.50
2023-04-20T17:43:09.040Z,38.03
2023-04-20T17:45:36.855Z,39.43
2023-04-20T17:48:05.372Z,41.45
2023-04-20T17:50:33.733Z,40.44
2023-04-20T17:53:06.709Z,40.79
2023-04-20T17:55:34.895Z,39.48
2023-04-20T17:58:02.316Z,41.53
2023-04-20T18:00:29.694Z,41.85
2023-04-20T18:02:57.420Z,42.59
2023-04-20T18:05:24.902Z,41.33
2023-04-20T18:07:52.258Z,40.26
2023-04-20T18:10:19.907Z,39.82
2023-04-20T18:12:47.285Z,39.13
2023-04-20T18:15:14.662Z,40.12
2023-04-20T18:17:43.426Z,39.81
2023-04-20T18:20:10.941Z,39.11
2023-04-20T18:22:38.459Z,40.27
2023-04-20T18:25:06.421Z,38.70
2023-04-20T18:27:33.773Z,39.40
2023-04-20T18:30:01.291Z,40.30
2023-04-20T18:32:30.939Z,40.82
2023-04-20T18:34:59.191Z,40.28
2023-04-20T18:37:26.547Z,39.71
2023-04-20T18:39:54.200Z,40.55
2023-04-20T18:42:21.618Z,40.02
2023-04-20T18:44:52.946Z,39.32
2023-04-20T18:47:22.139Z,40.21
2023-04-20T18:49:49.507Z,39.08
2023-04-20T18:52:18.506Z,39.56
2023-04-20T18:54:47.517Z,40.63
2023-04-20T18:57:15.028Z,39.78
2023-04-20T18:59:42.403Z,39.94
2023-04-20T19:02:10.290Z,38.84
2023-04-20T19:04:37.761Z,39.94
2023-04-20T19:07:05.159Z,40.91
2023-04-20T19:09:32.762Z,40.25
2023-04-20T19:12:01.467Z,41.05
2023-04-20T19:14:28.811Z,42.15
2023-04-20T19:16:56.565Z,42.84
2023-04-20T19:19:24.120Z,42.90
2023-04-20T19:21:51.487Z,42.58
2023-04-20T19:24:19.353Z,41.79
2023-04-20T19:26:46.976Z,42.10
2023-04-20T19:29:14.315Z,42.08
2023-04-20T19:31:42.133Z,41.95
2023-04-20T19:34:10.597Z,43.01
2023-04-20T19:36:37.977Z,42.98
2023-04-20T19:39:07.138Z,42.03
2023-04-20T19:41:34.632Z,42.49
2023-04-20T19:44:05.095Z,42.21
2023-04-20T19:46:33.490Z,42.12
2023-04-20T19:49:01.069Z,43.27
2023-04-20T19:51:28.445Z,43.63
2023-04-20T19:53:56.489Z,43.78
2023-04-20T19:56:23.864Z,44.57
2023-04-20T19:58:51.367Z,44.55
2023-04-20T20:01:19.437Z,44.24
2023-04-20T20:03:47.260Z,45.29
2023-04-20T20:06:14.678Z,45.25
2023-04-20T20:08:42.050Z,45.30
2023-04-20T20:11:09.744Z,45.67
2023-04-20T20:13:37.123Z,46.20
2023-04-20T20:16:04.702Z,45.95
2023-04-20T20:18:32.360Z,46.60
2023-04-20T20:20:59.695Z,46.42
2023-04-20T20:23:27.060Z,47.01
2023-04-20T20:25:54.685Z,46.92
2023-04-20T20:28:22.017Z,47.67
2023-04-20T20:30:49.390Z,47.09
2023-04-20T20:33:17.019Z,47.66
2023-04-20T20:35:44.445Z,47.99
2023-04-20T20:38:12.083Z,47.44
2023-04-20T20:40:40.014Z,47.98
2023-04-20T20:43:07.366Z,48.21
2023-04-20T20:45:34.831Z,48.33
2023-04-20T20:48:02.527Z,48.39
2023-04-20T20:50:29.901Z,48.07
2023-04-20T20:52:57.359Z,48.55
2023-04-20T20:55:25.053Z,48.73
2023-04-20T20:57:52.397Z,48.44
2023-04-20T21:00:20.302Z,49.84
2023-04-20T21:02:48.063Z,49.31
2023-04-20T21:05:15.611Z,49.51
2023-04-20T21:07:43.018Z,49.56
2023-04-20T21:10:11.806Z,49.70
2023-04-20T21:12:39.230Z,48.93
2023-04-20T21:15:07.398Z,49.02
2023-04-20T21:17:35.214Z,49.01
2023-04-20T21:20:05.663Z,48.57
2023-04-20T21:22:33.007Z,49.48
2023-04-20T21:25:00.622Z,49.20
2023-04-20T21:27:28.013Z,49.60
2023-04-20T21:29:55.361Z,49.72
2023-04-20T21:32:23.845Z,49.65
2023-04-20T21:34:52.168Z,49.20
2023-04-20T21:37:19.543Z,48.95
2023-04-20T21:39:47.155Z,49.27
2023-04-20T21:42:14.486Z,49.71
2023-04-20T21:44:41.855Z,49.82
2023-04-20T21:47:09.497Z,49.51
2023-04-20T21:49:36.848Z,49.91
2023-04-20T21:52:04.257Z,50.25
2023-04-20T21:54:34.064Z,50.48
2023-04-20T21:57:02.113Z,50.73
2023-04-20T21:59:29.438Z,50.85
2023-04-20T22:01:57.232Z,50.95
2023-04-20T22:04:28.508Z,51.48
2023-04-20T22:06:56.095Z,51.58
2023-04-20T22:09:23.483Z,51.32
2023-04-20T22:11:51.492Z,51.41
2023-04-20T22:14:18.889Z,51.20
2023-04-20T22:16:46.353Z,51.52
2023-04-20T22:19:14.003Z,52.03
2023-04-20T22:21:42.992Z,51.97
2023-04-20T22:24:10.449Z,52.23
2023-04-20T22:26:38.139Z,52.94
2023-04-20T22:29:05.526Z,52.73
2023-04-20T22:31:33.088Z,52.61
2023-04-20T22:34:00.708Z,53.47
2023-04-20T22:36:28.196Z,53.46
2023-04-20T22:38:55.616Z,53.08
2023-04-20T22:41:23.287Z,52.62
2023-04-20T22:43:50.669Z,52.98
2023-04-20T22:46:18.075Z,53.08
2023-04-20T22:48:48.545Z,53.39
2023-04-20T22:51:17.201Z,53.47
2023-04-20T22:53:44.636Z,53.79
2023-04-20T22:56:12.286Z,53.22
2023-04-20T22:58:39.637Z,53.22
2023-04-20T23:01:07.026Z,53.21
2023-04-20T23:03:34.882Z,53.69
2023-04-20T23:06:02.820Z,54.05
2023-04-20T23:08:30.218Z,53.97
2023-04-20T23:10:57.848Z,54.78
2023-04-20T23:13:26.214Z,54.34
2023-04-20T23:15:53.902Z,53.82
2023-04-20T23:18:21.680Z,53.23
2023-04-20T23:20:49.064Z,54.53
2023-04-20T23:23:16.427Z,54.78
2023-04-20T23:25:44.112Z,53.87
2023-04-20T23:28:11.482Z,54.52
2023-04-20T23:30:38.833Z,54.61
2023-04-20T23:33:06.502Z,54.76
2023-04-20T23:35:34.139Z,55.49
2023-04-20T23:38:02.794Z,55.65
2023-04-20T23:40:30.792Z,55.71
2023-04-20T23:42:58.181Z,55.16
2023-04-20T23:45:25.596Z,54.76
2023-04-20T23:47:53.354Z,54.47
2023-04-20T23:50:20.951Z,54.67
2023-04-20T23:52:48.303Z,54.44
2023-04-20T23:55:15.880Z,54.42
2023-04-20T23:57:43.345Z,55.00
